Flight Track Log - Related Links

Times and Time Zones

All times are in EDT time to prevent confusion due to time zone crossing. See the ANE8013 flight status page for this flight to view local times or setup timezone preferences in your user account.

Time Position Orientation Groundspeed Altitude Reporting Facility
EDT Latitude Longitude Course Direction KTS MPH feet Rate Location/Type
Sat 06:31:23 AM 39.5600 2.6921 283° West  Level Estimated
Sat 06:32:23 AM 39.5817 2.5703 283° West  Level Estimated
Sat 06:33:23 AM 39.6032 2.4484 283° West  Level Estimated
Sat 06:34:23 AM 39.6246 2.3264 283° West  Level Estimated
Sat 06:35:23 AM 39.6459 2.2043 283° West  Level Estimated
Sat 06:36:23 AM 39.6670 2.0822 283° West  Level Estimated
Sat 06:37:23 AM 39.6880 1.9599 283° West  Level Estimated
Sat 06:38:23 AM 39.7089 1.8376 282° West  Level Estimated
Sat 06:39:23 AM 39.7297 1.7153 282° West  Level Estimated
Sat 06:40:23 AM 39.7503 1.5928 282° West  Level Estimated
Sat 06:41:23 AM 39.7709 1.4703 282° West  Level Estimated
Sat 06:42:23 AM 39.7912 1.3478 282° West  Level Estimated
Sat 06:43:23 AM 39.8115 1.2251 282° West  Level Estimated
Sat 06:44:23 AM 39.8316 1.1024 282° West  Level Estimated
Sat 06:45:23 AM 39.8516 0.9796 282° West  Level Estimated
Sat 06:46:23 AM 39.8714 0.8567 282° West  Level Estimated
Sat 06:47:23 AM 39.8912 0.7338 282° West  Level Estimated
Sat 06:48:23 AM 39.9108 0.6108 282° West  Level Estimated
Sat 06:49:23 AM 39.9302 0.4877 282° West  Level Estimated
Sat 06:50:23 AM 39.9496 0.3645 282° West  Level Estimated
Sat 06:51:23 AM 39.9688 0.2413 281° West  Level Estimated
Sat 06:52:23 AM 39.9879 0.1180 281° West  Level Estimated
Sat 06:53:23 AM 40.0068 -0.0054 281° West  Level Estimated
Sat 06:54:23 AM 40.0257 -0.1288 281° West  Level Estimated
Sat 06:55:23 AM 40.0443 -0.2523 281° West  Level Estimated
Sat 06:56:23 AM 40.0629 -0.3758 281° West  Level Estimated
Sat 06:57:23 AM 40.0813 -0.4995 281° West  Level Estimated
Sat 06:58:23 AM 40.0996 -0.6232 281° West  Level Estimated
Sat 06:59:23 AM 40.1178 -0.7469 281° West  Level Estimated
Sat 07:00:23 AM 40.1358 -0.8708 281° West  Level Estimated
Sat 07:01:23 AM 40.1537 -0.9947 281° West  Level Estimated
Sat 07:02:23 AM 40.1715 -1.1186 281° West  Level Estimated
Sat 07:03:23 AM 40.1891 -1.2427 281° West  Level Estimated
Sat 07:04:23 AM 40.2066 -1.3667 280° West  Level Estimated
Sat 07:05:23 AM 40.2240 -1.4909 280° West  Level Estimated
Sat 07:06:23 AM 40.2412 -1.6151 280° West  Level Estimated
Sat 07:07:23 AM 40.2583 -1.7394 280° West  Level Estimated
Sat 07:08:23 AM 40.2753 -1.8637 280° West  Level Estimated
Sat 07:09:23 AM 40.2921 -1.9881 280° West  Level Estimated
Sat 07:10:23 AM 40.3088 -2.1126 280° West  Level Estimated
Sat 07:11:23 AM 40.3254 -2.2371 280° West  Level Estimated
Sat 07:12:23 AM 40.3419 -2.3617 280° West  Level Estimated
Sat 07:13:23 AM 40.3582 -2.4864 280° West  Level Estimated
Sat 07:14:23 AM 40.3743 -2.6111 280° West  Level Estimated
Sat 07:15:23 AM 40.3904 -2.7359 280° West  Level Estimated
Sat 07:16:23 AM 40.4063 -2.8607 279° West  Level Estimated
Sat 07:17:23 AM 40.4220 -2.9856 279° West  Level Estimated
Sat 07:18:23 AM 40.4377 -3.1105 279° West  Level Estimated
Sat 07:19:23 AM 40.4532 -3.2355 279° West  Level Estimated
Sat 07:20:23 AM 40.4685 -3.3606 279° West  Level Estimated
Sat 07:21:23 AM 40.4838 -3.4857 279° West  Level Estimated
Sat 07:22:23 AM 40.4989 -3.6109 99° East  Level Estimated
Sat 07:23:23 AM 40.4838 -3.4857 279° West  Level Estimated
Sat 07:24:23 AM 40.4989 -3.6109 99° East  Level Estimated
Sat 07:25:23 AM 40.4838 -3.4857 279° West  Level Estimated
Sat 07:26:23 AM 40.4989 -3.6109 99° East  Level Estimated
Sat 07:27:23 AM 40.4838 -3.4857 279° West  Level Estimated
Sat 07:28:23 AM 40.4989 -3.6109 99° East  Level Estimated
Sat 07:29:23 AM 40.4838 -3.4857 279° West  Level Estimated
Sat 07:30:23 AM 40.4989 -3.6109 99° East  Level Estimated
Sat 07:31:23 AM 40.4838 -3.4857 99° East  Level Estimated

Login

Don't have an account? Register now (free) for customized features, flight alerts, and more!